createdAt,value
2022-11-18T00:01:54.625Z,0.50
2022-11-18T00:04:40.913Z,0.70
2022-11-18T00:07:27.285Z,0.70
2022-11-18T00:10:13.884Z,0.90
2022-11-18T00:13:19.072Z,1.63
2022-11-18T00:16:11.238Z,1.43
2022-11-18T00:18:57.695Z,1.20
2022-11-18T00:21:44.399Z,0.50
2022-11-18T00:24:31.592Z,0.60
2022-11-18T00:27:18.166Z,0.73
2022-11-18T00:30:04.995Z,0.77
2022-11-18T00:32:51.228Z,0.60
2022-11-18T00:35:38.106Z,0.63
2022-11-18T00:38:25.487Z,0.70
2022-11-18T00:41:14.580Z,0.60
2022-11-18T00:44:05.061Z,1.10
2022-11-18T00:46:55.076Z,0.83
2022-11-18T00:49:41.545Z,0.60
2022-11-18T00:52:28.239Z,0.80
2022-11-18T00:55:14.768Z,0.80
2022-11-18T00:58:01.615Z,0.77
2022-11-18T01:00:51.994Z,0.87
2022-11-18T01:03:38.715Z,0.83
2022-11-18T01:06:25.093Z,0.60
2022-11-18T01:09:12.166Z,0.70
2022-11-18T01:12:17.471Z,0.70
2022-11-18T01:15:04.450Z,0.80
2022-11-18T01:17:51.050Z,0.90
2022-11-18T01:20:38.333Z,0.60
2022-11-18T01:23:24.793Z,0.90
2022-11-18T01:26:13.496Z,1.10
2022-11-18T01:29:00.230Z,0.73
2022-11-18T01:32:09.238Z,0.67
2022-11-18T01:34:53.096Z,0.63
2022-11-18T01:37:39.993Z,0.50
2022-11-18T01:40:27.614Z,0.77
2022-11-18T01:43:17.954Z,0.80
2022-11-18T01:46:04.482Z,0.50
2022-11-18T01:48:56.013Z,0.83
2022-11-18T01:51:48.872Z,0.60
2022-11-18T01:54:41.087Z,0.50
2022-11-18T01:57:30.567Z,0.77
2022-11-18T02:00:17.936Z,0.80
2022-11-18T02:03:04.575Z,0.80
2022-11-18T02:05:53.945Z,0.73
2022-11-18T02:08:41.783Z,0.60
2022-11-18T02:11:46.639Z,0.60
2022-11-18T02:14:37.262Z,0.53
2022-11-18T02:17:37.404Z,0.67
2022-11-18T02:20:39.461Z,0.80
2022-11-18T02:23:59.642Z,0.80
2022-11-18T02:27:33.283Z,1.50
2022-11-18T02:30:21.567Z,1.00
2022-11-18T02:33:24.741Z,0.97
2022-11-18T02:36:20.756Z,0.80
2022-11-18T02:39:20.110Z,0.97
2022-11-18T02:42:10.580Z,0.67
2022-11-18T02:45:03.422Z,0.70
2022-11-18T02:47:52.134Z,0.50
2022-11-18T02:50:40.983Z,0.60
2022-11-18T02:53:30.751Z,0.60
2022-11-18T02:56:19.922Z,0.60
2022-11-18T02:59:06.527Z,0.70
2022-11-18T03:01:53.184Z,0.73
2022-11-18T03:04:39.807Z,0.60
2022-11-18T03:07:32.762Z,0.70
2022-11-18T03:10:21.839Z,0.67
2022-11-18T03:13:15.065Z,0.73
2022-11-18T03:16:09.412Z,0.57
2022-11-18T03:19:25.011Z,0.70
2022-11-18T03:22:24.477Z,0.90
2022-11-18T03:25:20.353Z,0.50
2022-11-18T03:28:15.158Z,0.63
2022-11-18T03:31:32.186Z,0.50
2022-11-18T03:34:36.834Z,0.50
2022-11-18T03:37:26.418Z,0.40
2022-11-18T03:40:20.111Z,0.50
2022-11-18T03:43:13.188Z,0.33
2022-11-18T03:46:22.158Z,0.50
2022-11-18T03:49:14.588Z,0.30
2022-11-18T03:52:14.439Z,0.47
2022-11-18T03:55:05.807Z,0.47
2022-11-18T03:58:07.213Z,0.30
2022-11-18T04:01:01.333Z,0.40
2022-11-18T04:03:48.303Z,0.50
2022-11-18T04:06:40.845Z,0.20
2022-11-18T04:09:32.564Z,0.30
2022-11-18T04:12:21.162Z,0.30
2022-11-18T04:15:08.216Z,0.20
2022-11-18T04:17:54.856Z,0.47
2022-11-18T04:20:41.621Z,0.20
2022-11-18T04:23:28.265Z,0.40
2022-11-18T04:26:17.764Z,0.40
2022-11-18T04:29:04.617Z,0.20
2022-11-18T04:31:51.610Z,0.47
2022-11-18T04:34:37.991Z,0.40
2022-11-18T04:37:25.559Z,0.50
2022-11-18T04:40:12.898Z,0.37
2022-11-18T04:42:59.563Z,0.50
2022-11-18T04:45:46.222Z,0.30
2022-11-18T04:48:32.854Z,0.47
2022-11-18T04:51:19.531Z,0.40
2022-11-18T04:54:06.556Z,0.27
2022-11-18T04:56:53.943Z,0.30
2022-11-18T04:59:40.931Z,0.60
2022-11-18T05:02:27.387Z,0.67
2022-11-18T05:05:14.018Z,0.67
2022-11-18T05:08:00.613Z,0.20
2022-11-18T05:10:46.863Z,0.50
2022-11-18T05:13:33.177Z,0.40
2022-11-18T05:16:20.097Z,0.27
2022-11-18T05:19:06.829Z,0.40
2022-11-18T05:21:54.043Z,0.23
2022-11-18T05:24:40.795Z,0.50
2022-11-18T05:27:27.312Z,0.30
2022-11-18T05:30:14.216Z,1.10
2022-11-18T05:33:00.679Z,1.40
2022-11-18T05:35:49.985Z,1.00
2022-11-18T05:38:41.217Z,0.60
2022-11-18T05:41:46.487Z,0.50
2022-11-18T05:44:32.877Z,0.43
2022-11-18T05:47:19.493Z,0.40
2022-11-18T05:50:06.664Z,0.67
2022-11-18T05:52:53.193Z,0.37
2022-11-18T05:55:52.009Z,0.20
2022-11-18T05:58:38.357Z,0.10
2022-11-18T06:01:39.595Z,0.30
2022-11-18T06:04:40.768Z,0.40
2022-11-18T06:07:35.508Z,0.20
2022-11-18T06:10:29.562Z,0.30
2022-11-18T06:13:21.951Z,0.30
2022-11-18T06:16:08.797Z,0.40
2022-11-18T06:18:55.700Z,0.20
2022-11-18T06:21:43.179Z,0.33
2022-11-18T06:24:29.622Z,0.20
2022-11-18T06:27:16.470Z,0.20
2022-11-18T06:30:03.674Z,0.30
2022-11-18T06:32:50.375Z,0.40
2022-11-18T06:35:36.726Z,0.33
2022-11-18T06:38:26.531Z,0.20
2022-11-18T06:41:13.193Z,0.30
2022-11-18T06:44:01.031Z,0.47
2022-11-18T06:46:56.423Z,0.90
2022-11-18T06:49:42.824Z,0.50
2022-11-18T06:52:29.339Z,6.20
2022-11-18T06:55:17.307Z,2.10
2022-11-18T06:58:06.286Z,2.10
2022-11-18T07:00:53.115Z,2.93
2022-11-18T07:03:41.230Z,1.80
2022-11-18T07:06:30.547Z,0.83
2022-11-18T07:09:17.362Z,0.53
2022-11-18T07:12:04.757Z,2.80
2022-11-18T07:14:51.185Z,2.27
2022-11-18T07:17:37.689Z,4.27
2022-11-18T07:20:24.464Z,2.17
2022-11-18T07:23:11.036Z,3.20
2022-11-18T07:25:57.478Z,2.83
2022-11-18T07:28:48.796Z,3.07
2022-11-18T07:31:38.962Z,1.13
2022-11-18T07:34:25.436Z,1.17
2022-11-18T07:37:12.073Z,1.97
2022-11-18T07:39:59.907Z,1.30
2022-11-18T07:42:46.811Z,1.00
2022-11-18T07:45:42.772Z,1.70
2022-11-18T07:48:29.093Z,1.30
2022-11-18T07:51:18.313Z,1.10
2022-11-18T07:54:10.139Z,0.80
2022-11-18T07:56:58.799Z,0.83
2022-11-18T07:59:45.426Z,0.80
2022-11-18T08:02:32.163Z,0.80
2022-11-18T08:05:20.284Z,0.60
2022-11-18T08:08:06.966Z,0.70
2022-11-18T08:10:57.906Z,1.07
2022-11-18T08:13:44.758Z,0.63
2022-11-18T08:16:31.330Z,0.50
2022-11-18T08:19:18.183Z,0.67
2022-11-18T08:22:04.580Z,0.90
2022-11-18T08:24:50.973Z,0.60
2022-11-18T08:27:37.645Z,0.53
2022-11-18T08:30:49.566Z,0.90
2022-11-18T08:33:36.822Z,0.53
2022-11-18T08:36:26.332Z,1.00
2022-11-18T08:39:12.832Z,0.77
2022-11-18T08:41:59.215Z,0.60
2022-11-18T08:44:45.642Z,0.70
2022-11-18T08:47:32.574Z,0.67
2022-11-18T08:50:19.241Z,0.67
2022-11-18T08:53:06.020Z,0.60
2022-11-18T08:55:59.793Z,0.60
2022-11-18T08:58:46.502Z,0.40
2022-11-18T09:01:33.275Z,0.50
2022-11-18T09:04:19.990Z,0.27
2022-11-18T09:07:06.591Z,0.40
2022-11-18T09:09:53.271Z,0.30
2022-11-18T09:12:39.553Z,0.40
2022-11-18T09:15:26.785Z,0.40
2022-11-18T09:18:13.705Z,0.50
2022-11-18T09:21:02.667Z,0.60
2022-11-18T09:23:49.013Z,0.40
2022-11-18T09:26:35.665Z,0.53
2022-11-18T09:29:26.301Z,0.80
2022-11-18T09:32:13.602Z,0.53
2022-11-18T09:35:00.104Z,1.13
2022-11-18T09:37:47.699Z,1.07
2022-11-18T09:40:42.595Z,1.80
2022-11-18T09:44:06.786Z,1.80
2022-11-18T09:46:53.422Z,2.07
2022-11-18T09:49:46.876Z,4.43
2022-11-18T09:52:56.546Z,1.60
2022-11-18T09:55:42.977Z,1.10
2022-11-18T09:58:38.627Z,1.67
2022-11-18T10:01:27.707Z,1.17
2022-11-18T10:04:20.388Z,2.83
2022-11-18T10:07:15.597Z,1.67
2022-11-18T10:10:10.498Z,2.37
2022-11-18T10:13:09.913Z,2.80
2022-11-18T10:16:33.786Z,3.67
2022-11-18T10:19:25.684Z,1.50
2022-11-18T10:22:34.085Z,1.63
2022-11-18T10:25:22.485Z,1.43
2022-11-18T10:28:22.564Z,1.80
2022-11-18T10:31:11.858Z,1.33
2022-11-18T10:34:00.505Z,1.30
2022-11-18T10:37:00.835Z,1.40
2022-11-18T10:39:52.496Z,1.50
2022-11-18T10:42:46.418Z,1.27
2022-11-18T10:45:33.249Z,1.70
2022-11-18T10:48:19.548Z,1.57
2022-11-18T10:51:22.297Z,1.80
2022-11-18T10:54:27.710Z,1.60
2022-11-18T10:57:25.244Z,1.23
2022-11-18T11:00:35.599Z,1.40
2022-11-18T11:03:24.287Z,1.93
2022-11-18T11:06:23.895Z,0.93
2022-11-18T11:09:13.267Z,1.07
2022-11-18T11:12:13.226Z,3.93
2022-11-18T11:15:04.388Z,0.87
2022-11-18T11:18:23.223Z,2.30
2022-11-18T11:21:12.110Z,1.90
2022-11-18T11:23:58.833Z,1.43
2022-11-18T11:30:25.195Z,2.13
2022-11-18T11:33:28.074Z,1.17
2022-11-18T11:36:28.102Z,1.87
2022-11-18T11:39:38.226Z,1.47
2022-11-18T11:42:52.089Z,1.30
2022-11-18T11:46:20.427Z,3.07
2022-11-18T11:49:29.739Z,3.40
2022-11-18T11:52:28.229Z,1.40
2022-11-18T11:55:47.816Z,8.90
2022-11-18T11:59:06.103Z,1.87
2022-11-18T12:02:15.890Z,1.03
2022-11-18T12:05:25.315Z,1.37
2022-11-18T12:08:27.157Z,1.70
2022-11-18T12:11:29.991Z,1.20
2022-11-18T12:14:42.661Z,1.20
2022-11-18T12:17:40.101Z,1.60
2022-11-18T12:20:48.119Z,1.20
2022-11-18T12:23:34.767Z,3.00
2022-11-18T12:26:39.473Z,1.50
2022-11-18T12:29:40.666Z,1.57
2022-11-18T12:32:42.328Z,1.40
2022-11-18T12:35:37.611Z,1.00
2022-11-18T12:38:31.883Z,1.43
2022-11-18T12:42:02.587Z,1.07
2022-11-18T12:44:52.556Z,1.30
2022-11-18T12:47:42.323Z,2.03
2022-11-18T12:50:49.311Z,1.10
2022-11-18T12:53:40.358Z,2.73
2022-11-18T12:56:31.737Z,1.00
2022-11-18T12:59:27.557Z,1.53
2022-11-18T13:02:26.522Z,1.80
2022-11-18T13:05:21.487Z,1.37
2022-11-18T13:08:13.232Z,2.13
2022-11-18T13:11:38.376Z,1.67
2022-11-18T13:15:07.512Z,1.90
2022-11-18T13:18:12.608Z,3.37
2022-11-18T13:21:24.297Z,1.67
2022-11-18T13:24:16.696Z,1.10
2022-11-18T13:27:04.686Z,1.37
2022-11-18T13:30:14.584Z,1.93
2022-11-18T13:33:01.155Z,1.30
2022-11-18T13:35:47.771Z,1.23
2022-11-18T13:38:34.954Z,0.83
2022-11-18T13:41:32.466Z,0.90
2022-11-18T13:44:23.435Z,0.90
2022-11-18T13:47:36.644Z,0.90
2022-11-18T13:50:26.391Z,0.93
2022-11-18T13:53:19.133Z,0.87
2022-11-18T13:56:34.510Z,1.10
2022-11-18T13:59:24.913Z,1.60
2022-11-18T14:02:13.699Z,1.00
2022-11-18T14:05:00.526Z,1.30
2022-11-18T14:08:02.772Z,2.13
2022-11-18T14:10:49.100Z,1.90
2022-11-18T14:13:47.494Z,2.07
2022-11-18T14:16:36.850Z,1.23
2022-11-18T14:19:31.096Z,1.70
2022-11-18T14:22:22.891Z,3.13
2022-11-18T14:25:25.045Z,3.97
2022-11-18T14:28:26.660Z,1.63
2022-11-18T14:31:12.927Z,4.43
2022-11-18T14:34:14.254Z,1.90
2022-11-18T14:37:00.700Z,2.10
2022-11-18T14:39:55.748Z,2.20
2022-11-18T14:42:42.313Z,1.90
2022-11-18T14:45:28.856Z,3.17
2022-11-18T14:48:19.019Z,9.23
2022-11-18T14:51:05.926Z,2.33
2022-11-18T14:53:53.209Z,3.43
2022-11-18T14:56:41.224Z,4.50
2022-11-18T14:59:27.891Z,4.07
2022-11-18T15:02:17.054Z,3.83
2022-11-18T15:05:03.553Z,2.93
2022-11-18T15:07:55.282Z,2.63
2022-11-18T15:11:02.994Z,3.03
2022-11-18T15:17:53.634Z,1.90
2022-11-18T15:21:00.887Z,2.80
2022-11-18T15:23:54.861Z,3.80
2022-11-18T15:26:45.365Z,7.33
2022-11-18T15:29:38.088Z,3.40
2022-11-18T15:32:48.077Z,2.53
2022-11-18T15:35:42.005Z,3.00
2022-11-18T15:38:37.329Z,5.73
2022-11-18T15:41:29.647Z,3.23
2022-11-18T15:44:17.284Z,3.07
2022-11-18T15:47:04.353Z,2.20
2022-11-18T15:49:53.338Z,3.47
2022-11-18T15:52:42.942Z,2.83
2022-11-18T15:55:37.504Z,2.83
2022-11-18T15:58:29.243Z,3.60
2022-11-18T16:01:24.169Z,2.93
2022-11-18T16:04:15.022Z,2.80
2022-11-18T16:07:03.483Z,2.20
2022-11-18T16:10:08.946Z,3.33
2022-11-18T16:12:55.795Z,5.13
2022-11-18T16:15:48.367Z,12.93
2022-11-18T16:18:40.580Z,3.47
2022-11-18T16:21:28.773Z,2.40
2022-11-18T16:24:24.535Z,2.50
2022-11-18T16:27:11.034Z,2.40
2022-11-18T16:29:57.701Z,2.00
2022-11-18T16:32:44.355Z,2.93
2022-11-18T16:35:31.237Z,2.63
2022-11-18T16:38:18.730Z,2.57
2022-11-18T16:41:25.434Z,3.40
2022-11-18T16:44:14.165Z,4.17
2022-11-18T16:47:00.756Z,4.77
2022-11-18T16:49:47.334Z,4.57
2022-11-18T16:52:34.011Z,3.53
2022-11-18T16:55:23.370Z,2.80
2022-11-18T16:58:11.756Z,3.73
2022-11-18T17:01:18.556Z,2.80
2022-11-18T17:04:04.456Z,3.03
2022-11-18T17:06:51.097Z,2.93
2022-11-18T17:09:37.648Z,2.70
2022-11-18T17:12:23.783Z,3.73
2022-11-18T17:15:10.756Z,2.83
2022-11-18T17:17:57.021Z,3.00
2022-11-18T17:20:43.383Z,2.63
2022-11-18T17:23:30.023Z,3.23
2022-11-18T17:26:19.015Z,3.23
2022-11-18T17:29:08.092Z,3.60
2022-11-18T17:31:55.414Z,3.40
2022-11-18T17:34:42.671Z,2.93
2022-11-18T17:37:30.200Z,3.00
2022-11-18T17:40:16.686Z,3.40
2022-11-18T17:43:03.869Z,3.27
2022-11-18T17:45:57.311Z,2.67
2022-11-18T17:48:43.703Z,2.70
2022-11-18T17:51:30.866Z,3.77
2022-11-18T17:54:18.313Z,4.13
2022-11-18T17:57:04.975Z,3.20
2022-11-18T17:59:51.688Z,3.80
2022-11-18T18:02:37.926Z,4.57
2022-11-18T18:05:24.966Z,3.30
2022-11-18T18:08:11.883Z,4.00
2022-11-18T18:11:06.863Z,2.97
2022-11-18T18:14:12.275Z,2.83
2022-11-18T18:17:00.171Z,2.60
2022-11-18T18:19:47.073Z,3.07
2022-11-18T18:22:33.364Z,2.60
2022-11-18T18:25:23.623Z,2.73
2022-11-18T18:28:09.858Z,2.60
2022-11-18T18:31:08.540Z,2.43
2022-11-18T18:33:55.485Z,3.30
2022-11-18T18:36:41.689Z,3.07
2022-11-18T18:39:28.342Z,3.90
2022-11-18T18:42:15.079Z,3.43
2022-11-18T18:45:21.020Z,2.97
2022-11-18T18:48:07.553Z,2.70
2022-11-18T18:50:54.091Z,3.50
2022-11-18T18:53:41.601Z,3.37
2022-11-18T18:56:28.625Z,3.23
2022-11-18T18:59:15.236Z,2.90
2022-11-18T19:02:01.720Z,3.80
2022-11-18T19:04:48.372Z,3.30
2022-11-18T19:07:35.145Z,3.60
2022-11-18T19:10:21.714Z,3.70
2022-11-18T19:13:08.317Z,2.97
2022-11-18T19:15:54.931Z,2.90
2022-11-18T19:18:41.714Z,2.50
2022-11-18T19:21:28.515Z,2.50
2022-11-18T19:24:35.174Z,3.17
2022-11-18T19:27:21.765Z,2.43
2022-11-18T19:30:10.973Z,2.40
2022-11-18T19:32:58.803Z,2.67
2022-11-18T19:35:45.641Z,2.87
2022-11-18T19:38:34.674Z,2.60
2022-11-18T19:41:21.205Z,2.60
2022-11-18T19:44:07.889Z,2.60
2022-11-18T19:46:54.444Z,2.60
2022-11-18T19:49:41.376Z,3.47
2022-11-18T19:52:28.608Z,2.70
2022-11-18T19:55:15.163Z,3.80
2022-11-18T19:58:01.820Z,2.20
2022-11-18T20:00:48.461Z,1.87
2022-11-18T20:03:35.030Z,2.23
2022-11-18T20:06:22.737Z,4.03
2022-11-18T20:09:10.957Z,3.77
2022-11-18T20:11:57.570Z,4.50
2022-11-18T20:14:44.260Z,2.70
2022-11-18T20:17:30.440Z,4.53
2022-11-18T20:20:17.079Z,2.20
2022-11-18T20:23:05.087Z,2.33
2022-11-18T20:25:51.473Z,3.00
2022-11-18T20:28:41.066Z,1.90
2022-11-18T20:31:28.622Z,2.10
2022-11-18T20:34:15.065Z,1.83
2022-11-18T20:37:01.856Z,1.50
2022-11-18T20:39:48.064Z,1.60
2022-11-18T20:42:54.309Z,1.87
2022-11-18T20:45:43.415Z,1.80
2022-11-18T20:48:32.192Z,2.80
2022-11-18T20:51:24.803Z,1.70
2022-11-18T20:54:11.775Z,2.67
2022-11-18T20:56:58.403Z,2.40
2022-11-18T20:59:45.087Z,2.33
2022-11-18T21:02:31.466Z,3.00
2022-11-18T21:05:21.443Z,3.03
2022-11-18T21:08:08.928Z,4.97
2022-11-18T21:10:55.260Z,3.20
2022-11-18T21:14:00.720Z,2.90
2022-11-18T21:45:28.303Z,1.10
2022-11-18T21:48:14.503Z,1.70
2022-11-18T21:51:02.104Z,1.20
2022-11-18T21:53:48.594Z,0.97
2022-11-18T21:56:34.887Z,0.90
2022-11-18T21:59:22.692Z,0.80
2022-11-18T22:02:13.457Z,0.90
2022-11-18T22:05:06.380Z,0.63
2022-11-18T22:07:52.928Z,0.30
2022-11-18T22:10:45.358Z,0.30
2022-11-18T22:13:32.378Z,0.50
2022-11-18T22:16:20.925Z,0.30
2022-11-18T22:19:08.456Z,0.47
2022-11-18T22:21:54.898Z,0.60
2022-11-18T22:24:41.171Z,0.50
2022-11-18T22:27:27.383Z,0.70
2022-11-18T22:30:13.784Z,0.53
2022-11-18T22:33:00.328Z,0.40
2022-11-18T22:35:46.525Z,1.20
2022-11-18T22:38:32.970Z,2.00
2022-11-18T22:41:40.347Z,0.63
2022-11-18T22:44:26.979Z,2.53
2022-11-18T22:47:13.598Z,0.37
2022-11-18T22:49:59.832Z,1.00
2022-11-18T22:52:46.038Z,0.80
2022-11-18T22:55:32.212Z,0.60
2022-11-18T22:58:18.784Z,0.60
2022-11-18T23:01:08.005Z,0.50
2022-11-18T23:03:54.182Z,0.30
2022-11-18T23:06:40.472Z,0.67
2022-11-18T23:09:26.961Z,0.70
2022-11-18T23:12:31.785Z,0.80
2022-11-18T23:15:18.105Z,0.63
2022-11-18T23:18:08.765Z,1.07
2022-11-18T23:21:02.449Z,0.97
2022-11-18T23:23:48.609Z,0.77
2022-11-18T23:26:34.894Z,0.63
2022-11-18T23:29:21.955Z,1.03
2022-11-18T23:32:08.789Z,1.00
2022-11-18T23:34:55.099Z,1.10
2022-11-18T23:37:41.345Z,0.57
2022-11-18T23:40:29.045Z,1.00
2022-11-18T23:43:15.246Z,0.80
2022-11-18T23:46:02.356Z,0.80
2022-11-18T23:48:48.613Z,0.47
2022-11-18T23:51:34.816Z,0.70
2022-11-18T23:54:20.996Z,1.07
2022-11-18T23:57:07.486Z,0.70
2022-11-18T23:59:53.572Z,0.87
